Time;durP1;ratioP1;P1;durP2;ratioP2;P2;SDS_P1;SDS_P2;PMS_P1;PMS_P2;Temp;Humidity;BMP_temperature;BMP_pressure;BME280_temperature;BME280_humidity;BME280_pressure;Samples;Min_cycle;Max_cycle;Signal;HPM_P1;HPM_P2
2022/07/29 00:02:02;;;;;;;4.13;3.83;;;24.10;99.90;;;;;;5077328;28;20641;-96
2022/07/29 00:04:29;;;;;;;4.43;4.13;;;24.20;99.90;;;;;;5077794;28;20625;-96
2022/07/29 00:10:39;;;;;;;4.53;3.93;;;24.10;99.90;;;;;;5070494;28;20638;-96
2022/07/29 00:13:06;;;;;;;3.87;3.57;;;24.10;99.90;;;;;;5071655;28;20688;-96
2022/07/29 00:15:38;;;;;;;4.60;4.20;;;24.10;99.90;;;;;;5073113;28;20625;-96
2022/07/29 00:18:16;;;;;;;4.73;4.33;;;24.10;99.90;;;;;;5071548;28;20635;-96
2022/07/29 00:20:48;;;;;;;4.70;4.30;;;24.10;99.90;;;;;;5068503;28;20637;-96
2022/07/29 00:23:15;;;;;;;4.73;4.37;;;24.10;99.90;;;;;;5087612;28;20629;-96
2022/07/29 00:25:44;;;;;;;4.50;4.10;;;24.10;99.90;;;;;;5071568;28;20642;-96
2022/07/29 00:28:12;;;;;;;3.90;3.60;;;24.10;99.90;;;;;;5069388;28;20719;-96
2022/07/29 00:30:48;;;;;;;4.13;3.83;;;24.10;99.90;;;;;;5072080;28;20653;-96
2022/07/29 00:33:21;;;;;;;4.20;3.90;;;24.10;99.90;;;;;;5073373;28;20666;-96
2022/07/29 00:35:50;;;;;;;4.00;3.70;;;24.10;99.90;;;;;;5087596;28;20633;-96
2022/07/29 00:38:20;;;;;;;3.93;3.63;;;24.10;99.90;;;;;;5085510;28;20660;-96
2022/07/29 00:40:52;;;;;;;4.17;3.87;;;24.10;99.90;;;;;;5080828;28;20625;-96
2022/07/29 00:43:20;;;;;;;3.90;3.53;;;24.00;99.90;;;;;;5072981;28;20622;-96
2022/07/29 00:45:50;;;;;;;4.23;3.93;;;24.00;99.90;;;;;;5071195;28;20628;-96
2022/07/29 00:48:18;;;;;;;4.20;3.90;;;24.00;99.90;;;;;;5061715;28;20672;-96
2022/07/29 00:50:58;;;;;;;3.80;3.60;;;24.00;99.90;;;;;;5066580;28;20626;-95
2022/07/29 00:53:28;;;;;;;4.17;3.77;;;24.00;99.90;;;;;;5077133;28;20727;-96
2022/07/29 00:56:02;;;;;;;3.63;3.33;;;24.00;99.90;;;;;;5087298;28;20633;-96
2022/07/29 00:58:33;;;;;;;6.53;3.60;;;24.00;99.90;;;;;;5068037;28;20677;-96
2022/07/29 01:01:03;;;;;;;4.23;3.87;;;24.00;99.90;;;;;;5063954;28;21343;-96
2022/07/29 01:03:43;;;;;;;4.13;3.83;;;23.90;99.90;;;;;;5081227;28;21145;-96
2022/07/29 01:06:11;;;;;;;4.77;3.80;;;23.90;99.90;;;;;;5068855;28;20648;-96
2022/07/29 01:08:45;;;;;;;4.07;3.77;;;23.90;99.90;;;;;;5070395;28;20661;-96
2022/07/29 01:11:18;;;;;;;3.83;3.60;;;24.00;99.90;;;;;;5073643;28;20625;-96
2022/07/29 01:13:49;;;;;;;3.80;3.60;;;24.00;99.90;;;;;;5065220;28;20653;-96
2022/07/29 01:16:22;;;;;;;4.30;4.00;;;24.00;99.90;;;;;;5078912;28;20630;-95
2022/07/29 01:18:56;;;;;;;4.20;3.80;;;23.90;99.90;;;;;;5055262;28;21116;-96
2022/07/29 01:21:52;;;;;;;3.93;3.63;;;23.90;99.90;;;;;;5067354;28;20633;-95
2022/07/29 01:24:36;;;;;;;3.83;3.63;;;23.90;99.90;;;;;;5067098;28;20664;-96
2022/07/29 01:27:22;;;;;;;3.60;3.40;;;23.90;99.90;;;;;;5067047;28;21199;-95
2022/07/29 01:29:56;;;;;;;4.63;4.27;;;23.90;99.90;;;;;;5054757;28;20658;-96
2022/07/29 01:32:28;;;;;;;4.37;4.00;;;23.90;99.90;;;;;;5065522;28;20645;-96
2022/07/29 01:35:06;;;;;;;4.40;4.07;;;23.90;99.90;;;;;;5061561;28;20706;-96
2022/07/29 01:37:42;;;;;;;3.87;3.57;;;23.90;99.90;;;;;;5067583;28;20736;-96
2022/07/29 01:40:18;;;;;;;3.83;3.63;;;23.90;99.90;;;;;;5058216;28;20703;-96
2022/07/29 01:42:50;;;;;;;4.40;4.10;;;23.80;99.90;;;;;;5059082;28;20630;-96
2022/07/29 01:45:22;;;;;;;4.17;3.87;;;23.90;99.90;;;;;;5061901;28;20637;-96
2022/07/29 01:47:58;;;;;;;5.93;3.87;;;23.80;99.90;;;;;;5077662;28;20656;-96
2022/07/29 01:50:31;;;;;;;4.20;3.80;;;23.80;99.90;;;;;;5075135;28;20709;-96
2022/07/29 01:53:02;;;;;;;4.73;4.43;;;23.80;99.90;;;;;;5071817;28;20688;-95
2022/07/29 01:55:32;;;;;;;3.73;3.40;;;23.80;99.90;;;;;;5063415;28;20628;-95
2022/07/29 01:58:01;;;;;;;4.17;3.97;;;23.80;99.90;;;;;;5053239;28;20627;-95
2022/07/29 02:00:33;;;;;;;9.50;3.70;;;23.90;99.90;;;;;;5071461;28;20609;-96
2022/07/29 02:03:03;;;;;;;4.50;3.77;;;23.80;99.90;;;;;;5062652;28;20625;-96
2022/07/29 02:05:33;;;;;;;4.00;3.70;;;23.80;99.90;;;;;;5060835;28;20626;-96
2022/07/29 02:08:03;;;;;;;4.00;3.80;;;23.80;99.90;;;;;;5061448;28;20963;-96
2022/07/29 02:10:33;;;;;;;4.13;3.83;;;23.70;99.90;;;;;;5061442;28;20628;-96
2022/07/29 02:13:03;;;;;;;3.93;3.60;;;23.70;99.90;;;;;;5064467;28;20658;-96
2022/07/29 02:15:34;;;;;;;4.30;4.00;;;23.70;99.90;;;;;;5059945;28;21183;-95
2022/07/29 02:18:06;;;;;;;3.90;3.50;;;23.70;99.90;;;;;;5072847;28;20664;-95
2022/07/29 02:20:38;;;;;;;3.63;3.43;;;23.70;99.90;;;;;;5055467;28;20646;-96
2022/07/29 02:23:10;;;;;;;4.40;3.63;;;23.70;99.90;;;;;;5067960;28;20633;-95
2022/07/29 02:25:39;;;;;;;4.20;3.80;;;23.70;99.90;;;;;;5061350;28;20625;-96
2022/07/29 02:28:13;;;;;;;3.83;3.50;;;23.70;99.90;;;;;;5066231;28;20705;-95
2022/07/29 02:30:48;;;;;;;4.00;3.70;;;23.70;99.90;;;;;;5058175;28;20641;-96
2022/07/29 02:33:18;;;;;;;4.07;3.70;;;23.70;99.90;;;;;;5072300;28;20648;-96
2022/07/29 02:35:49;;;;;;;3.50;3.30;;;23.70;99.90;;;;;;5064383;28;20626;-96
2022/07/29 02:41:11;;;;;;;6.57;4.10;;;23.60;99.90;;;;;;5059042;28;20602;-96
2022/07/29 02:43:40;;;;;;;4.23;3.30;;;23.60;99.90;;;;;;5065444;28;20630;-96
2022/07/29 02:46:15;;;;;;;4.07;3.70;;;23.60;99.90;;;;;;5065325;28;20653;-96
2022/07/29 02:48:56;;;;;;;4.37;3.97;;;23.60;99.90;;;;;;5065049;28;20663;-96
2022/07/29 02:51:29;;;;;;;3.73;3.37;;;23.60;99.90;;;;;;5069016;28;20665;-96
2022/07/29 02:53:58;;;;;;;3.83;3.57;;;23.60;99.90;;;;;;5082929;28;20696;-96
2022/07/29 02:56:29;;;;;;;3.80;3.60;;;23.60;99.90;;;;;;5081839;28;20625;-96
2022/07/29 02:59:00;;;;;;;4.00;3.70;;;23.60;99.90;;;;;;5062370;28;20724;-96
2022/07/29 03:01:34;;;;;;;3.70;3.40;;;23.60;99.90;;;;;;5072837;28;20709;-96
2022/07/29 03:04:05;;;;;;;3.57;3.37;;;23.60;99.90;;;;;;5063259;28;20633;-96
2022/07/29 03:06:35;;;;;;;5.70;3.57;;;23.60;99.90;;;;;;5064648;28;20669;-96
2022/07/29 03:09:03;;;;;;;3.60;3.40;;;23.50;99.90;;;;;;5067591;28;20704;-96
2022/07/29 03:11:32;;;;;;;3.30;3.00;;;23.50;99.90;;;;;;5059141;28;21205;-96
2022/07/29 03:14:02;;;;;;;3.67;3.47;;;23.50;99.90;;;;;;5061001;28;21205;-96
2022/07/29 03:16:31;;;;;;;4.33;3.10;;;23.50;99.90;;;;;;5081530;28;20721;-96
2022/07/29 03:18:59;;;;;;;4.93;3.13;;;23.50;99.90;;;;;;5073814;28;20665;-96
2022/07/29 03:21:27;;;;;;;3.20;3.00;;;23.50;99.90;;;;;;5070161;28;21016;-96
2022/07/29 03:23:57;;;;;;;3.60;3.30;;;23.40;99.90;;;;;;5063735;28;20635;-96
2022/07/29 03:26:26;;;;;;;5.00;3.30;;;23.40;99.90;;;;;;5073297;28;20641;-96
2022/07/29 03:28:55;;;;;;;3.67;3.47;;;23.40;99.90;;;;;;5084045;28;21027;-96
2022/07/29 03:31:28;;;;;;;2.73;2.63;;;23.40;99.90;;;;;;5060638;28;21043;-96
2022/07/29 03:34:13;;;;;;;3.33;3.13;;;23.40;99.90;;;;;;5068690;28;20677;-96
2022/07/29 03:36:41;;;;;;;3.63;2.80;;;23.40;99.90;;;;;;5069142;28;20690;-96
2022/07/29 03:39:15;;;;;;;3.17;2.97;;;23.40;99.90;;;;;;5062697;28;20730;-96
2022/07/29 03:41:45;;;;;;;3.20;3.00;;;23.40;99.90;;;;;;5077021;28;20640;-96
2022/07/29 03:44:18;;;;;;;3.00;2.80;;;23.40;99.90;;;;;;5070320;28;20630;-96
2022/07/29 03:47:05;;;;;;;3.20;2.93;;;23.40;99.90;;;;;;5067359;28;20638;-96
2022/07/29 03:49:44;;;;;;;3.60;3.30;;;23.40;99.90;;;;;;5066515;28;20754;-96
2022/07/29 03:52:12;;;;;;;5.50;3.03;;;23.40;99.90;;;;;;5064469;28;20636;-96
2022/07/29 03:54:42;;;;;;;3.60;3.30;;;23.40;99.90;;;;;;5075052;28;20696;-95
2022/07/29 04:00:08;;;;;;;4.60;3.83;;;23.40;99.90;;;;;;5060661;28;20724;-96
2022/07/29 04:02:39;;;;;;;3.93;3.53;;;23.40;99.90;;;;;;5092222;28;20724;-96
2022/07/29 04:05:18;;;;;;;3.30;3.00;;;23.40;99.90;;;;;;5076627;28;20697;-96
2022/07/29 04:07:52;;;;;;;4.00;3.60;;;23.40;99.90;;;;;;5069994;28;20668;-96
2022/07/29 04:10:25;;;;;;;3.50;3.30;;;23.40;99.90;;;;;;5078361;28;20631;-96
2022/07/29 04:13:02;;;;;;;3.30;3.00;;;23.30;99.90;;;;;;5100588;28;20657;-96
2022/07/29 04:15:32;;;;;;;4.07;3.10;;;23.40;99.90;;;;;;5088970;28;20640;-96
2022/07/29 04:18:03;;;;;;;3.10;2.90;;;23.40;99.90;;;;;;5080966;28;20675;-96
2022/07/29 04:20:33;;;;;;;5.53;2.90;;;23.40;99.90;;;;;;5057105;28;20650;-96
2022/07/29 04:23:08;;;;;;;2.73;2.60;;;23.40;99.90;;;;;;5066205;28;20619;-96
2022/07/29 04:25:42;;;;;;;2.63;2.43;;;23.40;99.90;;;;;;5070938;28;20606;-96
2022/07/29 04:28:10;;;;;;;3.00;2.80;;;23.40;99.90;;;;;;5071289;28;20660;-96
2022/07/29 04:30:51;;;;;;;3.40;3.10;;;23.40;99.90;;;;;;5053017;28;20656;-95
2022/07/29 04:33:25;;;;;;;3.10;2.90;;;23.40;99.90;;;;;;5056339;28;20642;-96
2022/07/29 04:35:56;;;;;;;4.17;3.10;;;23.40;99.90;;;;;;5065473;28;20636;-96
2022/07/29 04:38:24;;;;;;;3.13;2.93;;;23.40;99.90;;;;;;5053026;28;21564;-96
2022/07/29 04:40:51;;;;;;;3.33;3.13;;;23.40;99.90;;;;;;5060418;28;20622;-96
2022/07/29 04:43:18;;;;;;;4.13;3.37;;;23.40;99.90;;;;;;5060099;28;20665;-96
2022/07/29 04:45:50;;;;;;;3.07;2.87;;;23.40;99.90;;;;;;5074385;28;20642;-96
2022/07/29 04:48:17;;;;;;;3.70;2.77;;;23.40;99.90;;;;;;5060160;28;21066;-95
2022/07/29 04:50:45;;;;;;;3.03;2.83;;;23.40;99.90;;;;;;5061982;28;20623;-96
2022/07/29 04:53:15;;;;;;;3.00;2.80;;;23.40;99.90;;;;;;5060002;28;20718;-95
2022/07/29 04:55:44;;;;;;;2.63;2.43;;;23.40;99.90;;;;;;5064201;28;20618;-96
2022/07/29 04:58:13;;;;;;;3.10;2.90;;;23.40;99.90;;;;;;5067193;28;20650;-96
2022/07/29 05:00:42;;;;;;;3.30;3.10;;;23.40;99.90;;;;;;5071541;28;20724;-96
2022/07/29 05:03:09;;;;;;;3.73;3.23;;;23.40;99.90;;;;;;5059429;28;20696;-96
2022/07/29 05:05:37;;;;;;;2.77;2.57;;;23.40;99.90;;;;;;5061488;28;20658;-95
2022/07/29 05:08:04;;;;;;;4.13;2.63;;;23.50;99.90;;;;;;5072442;28;20637;-96
2022/07/29 05:10:49;;;;;;;2.93;2.73;;;23.50;99.90;;;;;;5076610;28;20637;-96
2022/07/29 05:13:18;;;;;;;4.63;3.53;;;23.50;99.90;;;;;;5081229;28;20796;-96
2022/07/29 05:21:15;;;;;;;3.40;3.10;;;23.50;99.90;;;;;;5073395;28;20621;-96
2022/07/29 05:23:43;;;;;;;3.73;3.43;;;23.50;99.90;;;;;;5068614;28;20652;-96
2022/07/29 05:26:18;;;;;;;3.83;3.50;;;23.50;99.90;;;;;;5064643;28;20706;-96
2022/07/29 05:28:46;;;;;;;3.93;3.63;;;23.60;99.90;;;;;;5084764;28;20659;-96
2022/07/29 05:31:14;;;;;;;6.30;5.80;;;23.60;99.90;;;;;;5067970;28;20628;-84
2022/07/29 05:33:41;;;;;;;7.00;6.37;;;22.90;99.90;;;;;;5060846;28;20696;-83
2022/07/29 05:36:08;;;;;;;10.80;7.10;;;22.30;99.90;;;;;;5046896;28;20753;-82
2022/07/29 05:38:35;;;;;;;5.50;4.50;;;21.80;99.90;;;;;;5046884;28;20630;-82
2022/07/29 05:41:02;;;;;;;6.77;6.07;;;21.40;99.90;;;;;;5041646;28;20814;-82
2022/07/29 05:43:31;;;;;;;5.97;5.57;;;21.10;99.90;;;;;;5039726;28;20622;-83
2022/07/29 05:45:58;;;;;;;6.63;6.00;;;21.00;99.90;;;;;;5045656;28;20929;-82
2022/07/29 05:48:25;;;;;;;6.60;5.90;;;21.00;99.90;;;;;;5041471;28;21149;-82
2022/07/29 05:50:52;;;;;;;5.83;5.33;;;21.00;99.90;;;;;;5046038;28;20973;-83
2022/07/29 05:53:19;;;;;;;5.93;5.30;;;20.90;99.90;;;;;;5043756;28;20627;-82
2022/07/29 05:55:45;;;;;;;5.77;5.43;;;20.90;99.90;;;;;;5044665;28;20673;-83
2022/07/29 05:58:12;;;;;;;5.77;5.40;;;21.00;99.90;;;;;;5046178;28;20630;-82
2022/07/29 06:00:40;;;;;;;6.97;5.60;;;20.90;99.90;;;;;;5046843;28;20644;-83
2022/07/29 06:03:07;;;;;;;6.90;6.40;;;20.90;99.90;;;;;;5043170;28;20638;-82
2022/07/29 06:05:36;;;;;;;5.83;5.33;;;20.90;99.90;;;;;;5046312;28;20622;-82
2022/07/29 06:08:05;;;;;;;8.03;5.63;;;20.90;99.90;;;;;;5052422;28;20657;-82
2022/07/29 06:10:32;;;;;;;5.33;4.83;;;20.90;99.90;;;;;;5045656;28;20630;-81
2022/07/29 06:12:59;;;;;;;5.93;5.53;;;20.80;99.90;;;;;;5047624;28;20628;-82
2022/07/29 06:15:27;;;;;;;6.00;5.60;;;20.90;99.90;;;;;;5049263;28;21163;-82
2022/07/29 06:17:55;;;;;;;7.60;6.70;;;20.70;99.90;;;;;;5045815;28;20717;-83
2022/07/29 06:20:22;;;;;;;7.83;5.80;;;20.70;99.90;;;;;;5042761;28;20729;-83
2022/07/29 06:22:48;;;;;;;6.07;5.57;;;20.70;99.90;;;;;;5043956;28;20690;-83
2022/07/29 06:25:16;;;;;;;5.90;5.40;;;20.80;99.90;;;;;;5038969;28;20985;-82
2022/07/29 06:27:42;;;;;;;6.13;5.53;;;20.90;99.90;;;;;;5043323;28;20831;-82
2022/07/29 06:30:10;;;;;;;7.07;6.43;;;21.00;99.90;;;;;;5046070;28;20614;-82
2022/07/29 06:32:37;;;;;;;6.63;6.00;;;21.00;99.90;;;;;;5044802;28;20657;-82
2022/07/29 06:35:06;;;;;;;6.67;6.07;;;21.00;99.90;;;;;;5044586;28;20770;-82
2022/07/29 06:37:35;;;;;;;6.03;5.43;;;21.10;99.90;;;;;;5045347;28;20754;-82
2022/07/29 06:42:46;;;;;;;5.50;5.10;;;21.40;99.90;;;;;;5040732;28;20601;-82
2022/07/29 06:45:13;;;;;;;5.30;4.90;;;21.50;99.90;;;;;;5043579;28;21102;-82
2022/07/29 06:47:41;;;;;;;5.23;4.60;;;21.60;99.90;;;;;;5043412;28;20650;-82
2022/07/29 06:50:11;;;;;;;4.10;3.73;;;21.70;99.90;;;;;;5044683;28;20669;-83
2022/07/29 06:52:40;;;;;;;4.87;4.47;;;22.00;99.90;;;;;;5041488;28;20629;-83
2022/07/29 06:55:08;;;;;;;4.50;4.23;;;22.00;99.90;;;;;;5041701;28;20654;-83
2022/07/29 06:57:35;;;;;;;4.90;4.43;;;22.00;99.90;;;;;;5043529;28;20669;-83
2022/07/29 07:00:04;;;;;;;4.90;4.50;;;22.10;99.90;;;;;;5044106;28;21051;-82
2022/07/29 07:02:31;;;;;;;5.07;4.67;;;22.10;99.90;;;;;;5045493;28;20703;-82
2022/07/29 07:04:59;;;;;;;6.23;4.20;;;22.20;99.90;;;;;;5041339;28;20630;-83
2022/07/29 07:07:27;;;;;;;4.83;4.53;;;22.20;99.90;;;;;;5048039;28;20662;-82
2022/07/29 07:09:54;;;;;;;5.10;4.73;;;22.30;99.90;;;;;;5041381;28;20634;-83
2022/07/29 07:12:20;;;;;;;5.27;4.60;;;22.40;99.90;;;;;;5044186;28;21005;-83
2022/07/29 07:14:47;;;;;;;3.73;3.43;;;22.50;99.90;;;;;;5043180;28;20673;-83
2022/07/29 07:17:14;;;;;;;5.20;4.80;;;22.50;99.90;;;;;;5042670;28;20754;-82
2022/07/29 07:19:41;;;;;;;4.73;4.37;;;22.50;99.90;;;;;;5043083;28;20644;-83
2022/07/29 07:22:08;;;;;;;4.40;3.53;;;22.70;99.90;;;;;;5046546;28;20637;-83
2022/07/29 07:24:39;;;;;;;4.00;3.70;;;22.70;99.90;;;;;;5046621;28;21113;-82
2022/07/29 07:27:06;;;;;;;4.63;3.67;;;22.80;99.90;;;;;;5046193;28;20664;-83
2022/07/29 07:29:33;;;;;;;4.70;4.20;;;22.80;99.90;;;;;;5048551;28;20609;-83
2022/07/29 07:32:00;;;;;;;4.47;4.17;;;22.90;99.90;;;;;;5057992;28;20615;-82
2022/07/29 07:34:27;;;;;;;4.40;4.00;;;23.00;99.90;;;;;;5052379;28;20668;-82
2022/07/29 07:36:54;;;;;;;5.10;4.67;;;23.00;99.90;;;;;;5053043;28;20743;-83
2022/07/29 07:39:21;;;;;;;8.10;4.60;;;22.90;99.90;;;;;;5051557;28;20622;-82
2022/07/29 07:41:49;;;;;;;4.20;3.90;;;23.00;99.90;;;;;;5057499;28;20652;-82
2022/07/29 07:44:16;;;;;;;4.30;3.90;;;23.20;99.90;;;;;;5047565;28;21240;-83
2022/07/29 07:46:44;;;;;;;6.50;4.17;;;23.20;99.90;;;;;;5045993;28;20654;-83
2022/07/29 07:49:12;;;;;;;4.97;4.47;;;23.30;99.90;;;;;;5046266;28;20641;-83
2022/07/29 07:51:38;;;;;;;6.40;5.00;;;23.30;99.90;;;;;;5044948;28;20632;-83
2022/07/29 07:54:05;;;;;;;4.60;3.90;;;23.20;99.90;;;;;;5050185;28;20622;-82
2022/07/29 07:56:32;;;;;;;4.33;4.00;;;23.30;99.90;;;;;;5045680;28;21243;-82
2022/07/29 07:59:00;;;;;;;6.47;4.03;;;23.40;99.90;;;;;;5048610;28;20792;-82
2022/07/29 08:01:27;;;;;;;4.50;4.10;;;23.40;99.90;;;;;;5044379;28;20628;-82
2022/07/29 08:03:54;;;;;;;4.80;4.40;;;23.50;99.90;;;;;;5043940;28;20642;-81
2022/07/29 08:06:21;;;;;;;4.77;4.30;;;23.70;99.90;;;;;;5048213;28;21267;-84
2022/07/29 08:08:48;;;;;;;4.93;4.60;;;23.70;99.90;;;;;;5057692;28;20620;-84
2022/07/29 08:11:15;;;;;;;4.20;3.90;;;23.70;99.90;;;;;;5053306;28;20637;-83
2022/07/29 08:13:42;;;;;;;9.17;4.97;;;23.80;99.90;;;;;;5045883;28;20653;-84
2022/07/29 08:16:14;;;;;;;4.90;4.47;;;23.90;99.90;;;;;;5054781;28;20739;-82
2022/07/29 08:18:42;;;;;;;5.00;4.60;;;23.70;99.90;;;;;;5050734;28;20634;-84
2022/07/29 08:21:10;;;;;;;4.53;4.23;;;23.70;99.90;;;;;;5050373;28;20701;-84
2022/07/29 08:23:39;;;;;;;6.57;4.67;;;23.80;99.90;;;;;;5052256;28;20640;-83
2022/07/29 08:26:10;;;;;;;8.40;4.47;;;24.00;99.90;;;;;;5054327;28;20940;-83
2022/07/29 08:28:37;;;;;;;4.50;4.03;;;24.10;99.90;;;;;;5048564;28;20626;-84
2022/07/29 08:31:05;;;;;;;6.60;4.20;;;24.10;99.90;;;;;;5045546;28;20716;-83
2022/07/29 08:33:34;;;;;;;4.90;3.97;;;24.10;99.90;;;;;;5052402;28;20704;-84
2022/07/29 08:36:02;;;;;;;6.73;4.50;;;24.10;99.90;;;;;;5052892;28;20670;-83
2022/07/29 08:38:28;;;;;;;4.70;4.40;;;24.30;99.90;;;;;;5049360;28;21033;-83
2022/07/29 08:40:56;;;;;;;5.27;4.77;;;24.30;99.90;;;;;;5049991;28;20626;-84
2022/07/29 08:43:23;;;;;;;4.70;4.40;;;24.50;99.90;;;;;;5051404;28;21483;-83
2022/07/29 08:45:51;;;;;;;4.90;4.60;;;24.60;99.90;;;;;;5046887;28;20623;-82
2022/07/29 08:48:21;;;;;;;7.40;4.00;;;24.60;99.90;;;;;;5052972;28;20626;-84
2022/07/29 08:50:52;;;;;;;4.17;3.73;;;24.70;99.90;;;;;;5048163;28;20620;-83
2022/07/29 08:53:19;;;;;;;4.90;4.47;;;24.70;99.90;;;;;;5055106;28;20709;-83
2022/07/29 08:55:49;;;;;;;4.50;4.20;;;24.80;99.90;;;;;;5051701;28;20673;-84
2022/07/29 08:58:16;;;;;;;5.17;3.80;;;24.80;99.90;;;;;;5053201;28;20626;-84
2022/07/29 09:00:45;;;;;;;4.97;4.50;;;25.00;99.90;;;;;;5049875;28;20630;-84
2022/07/29 09:03:16;;;;;;;4.03;3.83;;;25.00;99.90;;;;;;5052727;28;20630;-83
2022/07/29 09:05:43;;;;;;;7.33;4.40;;;25.00;99.90;;;;;;5043280;28;20657;-81
2022/07/29 09:08:13;;;;;;;4.40;4.10;;;25.00;99.90;;;;;;5043517;28;20705;-81
2022/07/29 09:10:40;;;;;;;4.60;4.20;;;25.10;99.90;;;;;;5045261;28;20962;-84
2022/07/29 09:13:07;;;;;;;5.20;4.10;;;25.20;99.90;;;;;;5049068;28;20630;-84
2022/07/29 09:15:34;;;;;;;8.90;4.67;;;25.40;99.90;;;;;;5049679;28;20661;-82
2022/07/29 09:18:02;;;;;;;4.57;4.23;;;25.50;99.90;;;;;;5047951;28;20693;-83
2022/07/29 09:21:57;;;;;;;5.47;4.80;;;25.50;99.90;;;;;;5050168;28;21229;-81
2022/07/29 09:23:18;;;;;;;6.43;4.30;;;25.60;99.90;;;;;;5048684;28;20625;-81
2022/07/29 09:25:44;;;;;;;4.47;4.10;;;25.70;99.90;;;;;;5049511;28;20628;-82
2022/07/29 09:28:16;;;;;;;7.20;4.50;;;25.90;99.90;;;;;;5044275;28;20650;-82
2022/07/29 09:30:52;;;;;;;4.53;4.20;;;26.10;99.90;;;;;;5044672;28;20672;-82
2022/07/29 09:33:19;;;;;;;5.47;4.97;;;26.10;99.90;;;;;;5043673;28;20658;-82
2022/07/29 09:35:46;;;;;;;5.00;4.37;;;26.00;99.90;;;;;;5045679;28;20669;-84
2022/07/29 09:38:13;;;;;;;4.43;4.13;;;26.10;99.90;;;;;;5050730;28;20632;-83
2022/07/29 09:40:42;;;;;;;4.60;4.30;;;26.20;99.90;;;;;;5045155;28;20638;-82
2022/07/29 09:43:13;;;;;;;5.23;4.57;;;26.30;99.90;;;;;;5043072;28;20720;-83
2022/07/29 09:45:40;;;;;;;4.27;3.93;;;26.50;99.90;;;;;;5048563;28;20614;-82
2022/07/29 09:48:18;;;;;;;4.83;4.40;;;26.60;99.90;;;;;;5052424;28;20642;-82
2022/07/29 09:50:46;;;;;;;9.60;4.77;;;26.70;99.90;;;;;;5041208;28;20629;-84
2022/07/29 09:53:30;;;;;;;5.20;4.67;;;26.80;99.90;;;;;;5044999;28;20622;-84
2022/07/29 09:56:01;;;;;;;5.20;4.90;;;26.90;99.90;;;;;;5046310;28;20673;-81
2022/07/29 09:58:33;;;;;;;5.70;5.20;;;27.00;99.90;;;;;;5047106;28;20622;-83
2022/07/29 10:01:00;;;;;;;5.80;5.30;;;27.10;98.60;;;;;;5046472;28;20621;-81
2022/07/29 10:03:27;;;;;;;5.30;4.80;;;27.20;97.90;;;;;;5044245;28;20622;-82
2022/07/29 10:06:09;;;;;;;5.07;4.77;;;27.30;97.80;;;;;;5036349;28;21164;-81
2022/07/29 10:08:36;;;;;;;5.40;5.00;;;27.50;97.80;;;;;;5038839;28;20633;-81
2022/07/29 10:11:12;;;;;;;5.27;4.87;;;27.60;97.10;;;;;;5039445;28;20729;-81
2022/07/29 10:13:41;;;;;;;5.40;4.90;;;27.80;96.70;;;;;;5040815;28;20626;-81
2022/07/29 10:16:09;;;;;;;7.50;5.63;;;27.80;95.90;;;;;;5041553;28;21206;-83
2022/07/29 10:18:36;;;;;;;5.43;4.93;;;27.90;95.20;;;;;;5042754;28;20684;-83
2022/07/29 10:21:03;;;;;;;5.30;4.90;;;28.10;95.00;;;;;;5043485;28;20634;-83
2022/07/29 10:23:30;;;;;;;5.63;4.93;;;28.20;94.30;;;;;;5043499;28;20661;-83
2022/07/29 10:25:58;;;;;;;5.10;4.70;;;28.30;94.10;;;;;;5041452;28;20633;-83
2022/07/29 10:28:26;;;;;;;5.00;4.60;;;28.50;94.30;;;;;;5042058;28;20803;-83
2022/07/29 10:31:02;;;;;;;4.97;4.67;;;28.40;94.20;;;;;;5043694;28;20679;-83
2022/07/29 10:33:47;;;;;;;6.13;5.63;;;28.50;93.20;;;;;;5042195;28;21164;-83
2022/07/29 10:36:32;;;;;;;4.60;4.20;;;28.60;93.00;;;;;;5043078;28;20768;-83
2022/07/29 10:39:08;;;;;;;8.73;5.73;;;28.70;92.70;;;;;;5043607;28;20687;-83
2022/07/29 10:41:55;;;;;;;5.00;4.60;;;28.80;92.60;;;;;;5024949;28;20625;-83
2022/07/29 10:44:25;;;;;;;6.50;4.97;;;28.80;92.40;;;;;;5041498;28;20625;-83
2022/07/29 10:46:53;;;;;;;5.43;4.90;;;28.80;92.10;;;;;;5040774;28;21011;-83
2022/07/29 10:49:21;;;;;;;5.47;4.90;;;28.70;91.90;;;;;;5045009;28;20614;-83
2022/07/29 10:52:09;;;;;;;6.13;4.70;;;28.70;92.00;;;;;;5042553;28;20631;-83
2022/07/29 10:54:44;;;;;;;4.57;4.27;;;28.70;92.10;;;;;;5036521;28;20642;-83
2022/07/29 10:57:14;;;;;;;4.97;4.60;;;28.80;93.10;;;;;;5042443;28;20681;-83
2022/07/29 10:59:44;;;;;;;4.80;4.20;;;28.80;92.50;;;;;;5041968;28;20627;-83
2022/07/29 11:02:48;;;;;;;5.10;4.70;;;28.80;92.60;;;;;;5045987;28;20665;-83
2022/07/29 11:05:17;;;;;;;6.60;4.57;;;28.70;92.20;;;;;;5045535;28;20631;-83
2022/07/29 11:08:17;;;;;;;4.53;4.23;;;28.50;92.20;;;;;;5048422;28;21024;-83
2022/07/29 11:10:44;;;;;;;5.17;4.80;;;28.20;92.50;;;;;;5039078;28;20660;-83
2022/07/29 11:13:11;;;;;;;7.80;6.00;;;28.10;92.80;;;;;;5048303;28;20640;-82
2022/07/29 11:18:34;;;;;;;5.33;4.93;;;28.10;92.10;;;;;;5145867;27;20788;-83
2022/07/29 11:21:01;;;;;;;10.43;5.87;;;27.50;93.20;;;;;;5151396;27;20621;-83
2022/07/29 11:23:31;;;;;;;6.43;5.93;;;27.10;94.40;;;;;;5151512;27;20996;-82
2022/07/29 11:26:20;;;;;;;7.10;5.80;;;26.60;96.00;;;;;;5147924;27;20639;-83
2022/07/29 11:29:07;;;;;;;5.33;4.80;;;26.10;97.00;;;;;;5149140;27;20628;-84
2022/07/29 11:31:41;;;;;;;11.97;5.57;;;25.60;99.90;;;;;;5147863;27;20696;-84
2022/07/29 11:34:20;;;;;;;7.00;4.50;;;24.60;99.90;;;;;;5147613;27;20633;-84
2022/07/29 11:37:15;;;;;;;6.73;3.17;;;23.20;99.90;;;;;;5148652;27;21426;-85
2022/07/29 11:39:43;;;;;;;3.93;3.10;;;22.20;99.90;;;;;;5139074;27;21118;-84
2022/07/29 11:42:53;;;;;;;5.33;3.63;;;21.20;99.90;;;;;;5138796;27;20625;-83
2022/07/29 11:45:23;;;;;;;7.73;4.33;;;21.10;99.90;;;;;;5126363;27;20646;-82
2022/07/29 11:47:57;;;;;;;5.10;3.00;;;20.70;99.90;;;;;;5139904;27;20646;-83
2022/07/29 11:50:34;;;;;;;4.10;3.30;;;20.50;99.90;;;;;;5139901;27;20625;-82
2022/07/29 11:53:03;;;;;;;3.50;3.20;;;20.20;99.90;;;;;;5142392;27;20624;-83
2022/07/29 11:55:31;;;;;;;6.40;3.20;;;20.10;99.90;;;;;;5138689;27;20953;-84
2022/07/29 11:57:59;;;;;;;6.97;3.60;;;19.80;99.90;;;;;;5139057;27;20674;-84
2022/07/29 12:00:30;;;;;;;7.80;3.67;;;19.80;99.90;;;;;;5142201;27;20653;-83
2022/07/29 12:02:58;;;;;;;3.40;3.07;;;19.70;99.90;;;;;;5145875;27;20625;-83
2022/07/29 12:05:38;;;;;;;5.50;2.97;;;19.30;99.90;;;;;;5142716;27;20634;-84
2022/07/29 12:08:07;;;;;;;4.10;2.97;;;19.50;99.90;;;;;;5149273;27;20636;-84
2022/07/29 12:10:34;;;;;;;4.17;3.87;;;19.50;99.90;;;;;;5138930;27;21159;-83
2022/07/29 12:13:01;;;;;;;10.10;4.47;;;19.60;99.90;;;;;;5143953;27;20759;-84
2022/07/29 12:15:28;;;;;;;6.23;4.53;;;19.70;99.90;;;;;;5144555;27;20620;-83
2022/07/29 12:17:55;;;;;;;8.80;4.20;;;19.80;99.90;;;;;;5152706;27;21136;-83
2022/07/29 12:20:27;;;;;;;4.20;3.80;;;19.90;99.90;;;;;;5150045;27;20724;-83
2022/07/29 12:22:56;;;;;;;4.47;3.40;;;19.90;99.90;;;;;;5154575;27;20669;-83
2022/07/29 12:25:24;;;;;;;4.63;4.17;;;20.00;99.90;;;;;;5147425;27;21216;-83
2022/07/29 12:28:02;;;;;;;2.90;2.60;;;20.00;99.90;;;;;;5134246;27;20672;-83
2022/07/29 12:30:38;;;;;;;3.90;3.60;;;20.10;99.90;;;;;;5123940;27;20753;-83
2022/07/29 12:33:12;;;;;;;6.10;3.23;;;20.20;99.90;;;;;;5127929;27;20618;-83
2022/07/29 12:35:39;;;;;;;3.77;2.90;;;20.10;99.90;;;;;;5119321;27;20622;-83
2022/07/29 12:38:09;;;;;;;4.27;3.40;;;20.20;99.90;;;;;;5128838;27;20677;-83
2022/07/29 12:40:37;;;;;;;3.37;3.07;;;20.30;99.90;;;;;;5128650;27;20624;-83
2022/07/29 12:43:09;;;;;;;3.60;2.77;;;20.30;99.90;;;;;;5134937;27;20634;-82
2022/07/29 12:45:36;;;;;;;2.80;2.70;;;20.40;99.90;;;;;;5127638;27;20613;-83
2022/07/29 12:48:04;;;;;;;3.70;3.03;;;20.40;99.90;;;;;;5136271;27;21134;-83
2022/07/29 12:50:32;;;;;;;4.40;3.83;;;20.50;99.90;;;;;;5134582;27;20611;-82
2022/07/29 12:53:11;;;;;;;3.53;3.20;;;20.60;99.90;;;;;;5126605;27;20634;-82
2022/07/29 12:55:48;;;;;;;3.90;3.60;;;20.70;99.90;;;;;;5121388;27;20707;-82
2022/07/29 12:58:27;;;;;;;3.90;3.03;;;20.60;99.90;;;;;;5123372;27;20669;-83
2022/07/29 13:01:09;;;;;;;4.00;2.70;;;20.50;99.90;;;;;;5133400;27;21124;-82
2022/07/29 13:03:47;;;;;;;4.00;3.70;;;20.60;99.90;;;;;;5125599;27;20708;-83
2022/07/29 13:06:35;;;;;;;4.23;3.93;;;20.70;99.90;;;;;;5129956;27;21592;-82
2022/07/29 13:09:09;;;;;;;3.00;2.70;;;20.80;99.90;;;;;;5136297;27;20621;-83
2022/07/29 13:11:39;;;;;;;4.03;3.50;;;20.80;99.90;;;;;;5131543;27;21346;-82
2022/07/29 13:14:08;;;;;;;3.93;3.63;;;20.80;99.90;;;;;;5130609;27;20625;-82
2022/07/29 13:16:35;;;;;;;4.17;3.80;;;20.90;99.90;;;;;;5128043;27;20656;-83
2022/07/29 13:19:07;;;;;;;7.33;4.10;;;20.90;99.90;;;;;;5128499;27;20672;-83
2022/07/29 13:21:34;;;;;;;4.20;3.80;;;21.00;99.90;;;;;;5127176;27;20619;-83
2022/07/29 13:24:01;;;;;;;4.03;3.73;;;21.00;99.90;;;;;;5127009;27;20619;-83
2022/07/29 13:26:29;;;;;;;3.77;3.57;;;20.90;99.90;;;;;;5132109;27;20744;-83